sensor_id;sensor_type;location;lat;lon;timestamp;temperature;humidity
25438;DHT22;13364;49.084;9.978;2023-08-20T00:02:16;23.10;81.60
25438;DHT22;13364;49.084;9.978;2023-08-20T00:04:46;23.10;81.60
25438;DHT22;13364;49.084;9.978;2023-08-20T00:07:15;23.10;81.60
25438;DHT22;13364;49.084;9.978;2023-08-20T00:09:45;23.10;81.70
25438;DHT22;13364;49.084;9.978;2023-08-20T00:12:12;23.00;81.90
25438;DHT22;13364;49.084;9.978;2023-08-20T00:14:53;23.00;82.00
25438;DHT22;13364;49.084;9.978;2023-08-20T00:17:25;23.00;82.10
25438;DHT22;13364;49.084;9.978;2023-08-20T00:19:55;23.00;82.40
25438;DHT22;13364;49.084;9.978;2023-08-20T00:22:23;22.90;82.80
25438;DHT22;13364;49.084;9.978;2023-08-20T00:24:52;22.80;83.20
25438;DHT22;13364;49.084;9.978;2023-08-20T00:27:20;22.80;83.60
25438;DHT22;13364;49.084;9.978;2023-08-20T00:29:47;22.70;83.90
25438;DHT22;13364;49.084;9.978;2023-08-20T00:32:14;22.70;84.00
25438;DHT22;13364;49.084;9.978;2023-08-20T00:34:42;22.70;84.00
25438;DHT22;13364;49.084;9.978;2023-08-20T00:37:10;22.70;84.10
25438;DHT22;13364;49.084;9.978;2023-08-20T00:39:39;22.70;84.20
25438;DHT22;13364;49.084;9.978;2023-08-20T00:42:06;22.70;84.10
25438;DHT22;13364;49.084;9.978;2023-08-20T00:44:34;22.70;83.90
25438;DHT22;13364;49.084;9.978;2023-08-20T00:47:02;22.80;83.70
25438;DHT22;13364;49.084;9.978;2023-08-20T00:49:32;22.80;83.60
25438;DHT22;13364;49.084;9.978;2023-08-20T00:51:59;22.70;83.60
25438;DHT22;13364;49.084;9.978;2023-08-20T00:54:28;22.70;83.60
25438;DHT22;13364;49.084;9.978;2023-08-20T00:56:56;22.70;83.50
25438;DHT22;13364;49.084;9.978;2023-08-20T00:59:23;22.70;83.70
25438;DHT22;13364;49.084;9.978;2023-08-20T01:01:50;22.70;83.90
25438;DHT22;13364;49.084;9.978;2023-08-20T01:04:17;22.70;83.90
25438;DHT22;13364;49.084;9.978;2023-08-20T01:09:51;22.70;83.80
25438;DHT22;13364;49.084;9.978;2023-08-20T01:12:52;22.70;83.70
25438;DHT22;13364;49.084;9.978;2023-08-20T01:15:20;22.70;83.70
25438;DHT22;13364;49.084;9.978;2023-08-20T01:17:48;22.60;84.00
25438;DHT22;13364;49.084;9.978;2023-08-20T01:20:16;22.60;84.00
25438;DHT22;13364;49.084;9.978;2023-08-20T01:22:52;22.60;84.40
25438;DHT22;13364;49.084;9.978;2023-08-20T01:30:49;22.50;84.80
25438;DHT22;13364;49.084;9.978;2023-08-20T01:33:18;22.50;84.70
25438;DHT22;13364;49.084;9.978;2023-08-20T01:35:46;22.50;85.60
25438;DHT22;13364;49.084;9.978;2023-08-20T01:38:16;22.50;85.60
25438;DHT22;13364;49.084;9.978;2023-08-20T01:40:43;22.60;85.50
25438;DHT22;13364;49.084;9.978;2023-08-20T01:43:10;22.60;85.40
25438;DHT22;13364;49.084;9.978;2023-08-20T01:45:38;22.60;85.40
25438;DHT22;13364;49.084;9.978;2023-08-20T01:48:05;22.60;85.20
25438;DHT22;13364;49.084;9.978;2023-08-20T01:50:35;22.60;85.30
25438;DHT22;13364;49.084;9.978;2023-08-20T01:53:02;22.60;85.60
25438;DHT22;13364;49.084;9.978;2023-08-20T01:55:30;22.60;85.30
25438;DHT22;13364;49.084;9.978;2023-08-20T01:57:59;22.60;85.20
25438;DHT22;13364;49.084;9.978;2023-08-20T02:00:26;22.60;85.00
25438;DHT22;13364;49.084;9.978;2023-08-20T02:02:57;22.70;84.90
25438;DHT22;13364;49.084;9.978;2023-08-20T02:05:25;22.70;84.90
25438;DHT22;13364;49.084;9.978;2023-08-20T02:07:54;22.70;84.90
25438;DHT22;13364;49.084;9.978;2023-08-20T02:10:21;22.70;85.20
25438;DHT22;13364;49.084;9.978;2023-08-20T02:12:48;22.70;85.40
25438;DHT22;13364;49.084;9.978;2023-08-20T02:15:16;22.70;85.30
25438;DHT22;13364;49.084;9.978;2023-08-20T02:17:43;22.70;84.90
25438;DHT22;13364;49.084;9.978;2023-08-20T02:20:10;22.60;84.80
25438;DHT22;13364;49.084;9.978;2023-08-20T02:22:37;22.60;85.10
25438;DHT22;13364;49.084;9.978;2023-08-20T02:25:04;22.60;85.20
25438;DHT22;13364;49.084;9.978;2023-08-20T02:27:32;22.50;85.30
25438;DHT22;13364;49.084;9.978;2023-08-20T02:29:59;22.50;85.40
25438;DHT22;13364;49.084;9.978;2023-08-20T02:32:26;22.40;85.40
25438;DHT22;13364;49.084;9.978;2023-08-20T02:34:54;22.40;85.10
25438;DHT22;13364;49.084;9.978;2023-08-20T02:37:25;22.40;84.60
25438;DHT22;13364;49.084;9.978;2023-08-20T02:39:52;22.40;84.50
25438;DHT22;13364;49.084;9.978;2023-08-20T02:42:19;22.30;84.80
25438;DHT22;13364;49.084;9.978;2023-08-20T02:44:46;22.30;85.20
25438;DHT22;13364;49.084;9.978;2023-08-20T02:47:13;22.30;85.50
25438;DHT22;13364;49.084;9.978;2023-08-20T02:49:41;22.20;85.70
25438;DHT22;13364;49.084;9.978;2023-08-20T02:52:08;22.20;85.90
25438;DHT22;13364;49.084;9.978;2023-08-20T02:54:35;22.20;86.20
25438;DHT22;13364;49.084;9.978;2023-08-20T02:57:02;22.10;86.20
25438;DHT22;13364;49.084;9.978;2023-08-20T02:59:29;22.10;86.10
25438;DHT22;13364;49.084;9.978;2023-08-20T03:01:56;22.10;86.20
25438;DHT22;13364;49.084;9.978;2023-08-20T03:04:24;22.10;86.40
25438;DHT22;13364;49.084;9.978;2023-08-20T03:06:51;22.00;86.70
25438;DHT22;13364;49.084;9.978;2023-08-20T03:09:25;21.90;86.90
25438;DHT22;13364;49.084;9.978;2023-08-20T03:11:52;21.90;86.90
25438;DHT22;13364;49.084;9.978;2023-08-20T03:14:19;21.90;87.00
25438;DHT22;13364;49.084;9.978;2023-08-20T03:16:46;21.80;87.20
25438;DHT22;13364;49.084;9.978;2023-08-20T03:19:15;21.80;87.30
25438;DHT22;13364;49.084;9.978;2023-08-20T03:21:42;21.80;87.30
25438;DHT22;13364;49.084;9.978;2023-08-20T03:24:10;21.70;87.40
25438;DHT22;13364;49.084;9.978;2023-08-20T03:26:37;21.70;87.50
25438;DHT22;13364;49.084;9.978;2023-08-20T03:29:04;21.70;87.80
25438;DHT22;13364;49.084;9.978;2023-08-20T03:31:31;21.70;87.90
25438;DHT22;13364;49.084;9.978;2023-08-20T03:33:59;21.70;87.90
25438;DHT22;13364;49.084;9.978;2023-08-20T03:36:26;21.70;88.00
25438;DHT22;13364;49.084;9.978;2023-08-20T03:38:55;21.80;88.00
25438;DHT22;13364;49.084;9.978;2023-08-20T03:41:22;21.70;87.90
25438;DHT22;13364;49.084;9.978;2023-08-20T03:43:49;21.70;88.20
25438;DHT22;13364;49.084;9.978;2023-08-20T03:46:16;21.60;88.40
25438;DHT22;13364;49.084;9.978;2023-08-20T03:48:43;21.60;88.60
25438;DHT22;13364;49.084;9.978;2023-08-20T03:51:11;21.50;88.80
25438;DHT22;13364;49.084;9.978;2023-08-20T03:53:38;21.50;88.90
25438;DHT22;13364;49.084;9.978;2023-08-20T03:56:05;21.40;89.00
25438;DHT22;13364;49.084;9.978;2023-08-20T03:58:32;21.40;89.00
25438;DHT22;13364;49.084;9.978;2023-08-20T04:01:01;21.40;89.20
25438;DHT22;13364;49.084;9.978;2023-08-20T04:03:28;21.40;89.10
25438;DHT22;13364;49.084;9.978;2023-08-20T04:05:55;21.50;89.00
25438;DHT22;13364;49.084;9.978;2023-08-20T04:08:22;21.50;89.00
25438;DHT22;13364;49.084;9.978;2023-08-20T04:10:49;21.40;89.20
25438;DHT22;13364;49.084;9.978;2023-08-20T04:13:17;21.40;89.40
25438;DHT22;13364;49.084;9.978;2023-08-20T04:15:44;21.40;89.70
25438;DHT22;13364;49.084;9.978;2023-08-20T04:18:11;21.40;89.80
25438;DHT22;13364;49.084;9.978;2023-08-20T04:20:38;21.40;89.40
25438;DHT22;13364;49.084;9.978;2023-08-20T04:23:06;21.40;89.70
25438;DHT22;13364;49.084;9.978;2023-08-20T04:25:35;21.50;89.90
25438;DHT22;13364;49.084;9.978;2023-08-20T04:28:02;21.50;90.00
25438;DHT22;13364;49.084;9.978;2023-08-20T04:30:29;21.60;90.00
25438;DHT22;13364;49.084;9.978;2023-08-20T04:32:58;21.60;90.00
25438;DHT22;13364;49.084;9.978;2023-08-20T04:35:27;21.60;90.20
25438;DHT22;13364;49.084;9.978;2023-08-20T04:37:54;21.60;90.30
25438;DHT22;13364;49.084;9.978;2023-08-20T04:40:21;21.60;90.50
25438;DHT22;13364;49.084;9.978;2023-08-20T04:42:51;21.70;90.50
25438;DHT22;13364;49.084;9.978;2023-08-20T04:45:18;21.70;90.50
25438;DHT22;13364;49.084;9.978;2023-08-20T04:47:47;21.70;90.50
25438;DHT22;13364;49.084;9.978;2023-08-20T04:50:15;21.70;90.30
25438;DHT22;13364;49.084;9.978;2023-08-20T04:52:44;21.70;90.70
25438;DHT22;13364;49.084;9.978;2023-08-20T04:55:13;21.70;90.50
25438;DHT22;13364;49.084;9.978;2023-08-20T04:57:43;21.60;90.20
25438;DHT22;13364;49.084;9.978;2023-08-20T05:00:11;21.60;89.80
25438;DHT22;13364;49.084;9.978;2023-08-20T05:06:57;21.50;89.50
25438;DHT22;13364;49.084;9.978;2023-08-20T05:09:24;21.40;89.20
25438;DHT22;13364;49.084;9.978;2023-08-20T05:11:51;21.40;89.60
25438;DHT22;13364;49.084;9.978;2023-08-20T05:14:19;21.40;89.80
25438;DHT22;13364;49.084;9.978;2023-08-20T05:16:46;21.40;90.00
25438;DHT22;13364;49.084;9.978;2023-08-20T05:19:13;21.30;90.50
25438;DHT22;13364;49.084;9.978;2023-08-20T05:21:41;21.30;90.50
25438;DHT22;13364;49.084;9.978;2023-08-20T05:24:09;21.40;90.30
25438;DHT22;13364;49.084;9.978;2023-08-20T05:26:36;21.40;90.60
25438;DHT22;13364;49.084;9.978;2023-08-20T05:29:03;21.40;90.70
25438;DHT22;13364;49.084;9.978;2023-08-20T05:31:30;21.40;90.70
25438;DHT22;13364;49.084;9.978;2023-08-20T05:33:57;21.50;90.50
25438;DHT22;13364;49.084;9.978;2023-08-20T05:36:24;21.50;90.60
25438;DHT22;13364;49.084;9.978;2023-08-20T05:38:51;21.50;90.60
25438;DHT22;13364;49.084;9.978;2023-08-20T05:41:18;21.60;90.60
25438;DHT22;13364;49.084;9.978;2023-08-20T05:43:46;21.60;90.30
25438;DHT22;13364;49.084;9.978;2023-08-20T05:46:13;21.60;90.20
25438;DHT22;13364;49.084;9.978;2023-08-20T05:48:40;21.70;90.00
25438;DHT22;13364;49.084;9.978;2023-08-20T05:51:08;21.70;89.80
25438;DHT22;13364;49.084;9.978;2023-08-20T05:53:38;21.70;89.80
25438;DHT22;13364;49.084;9.978;2023-08-20T05:56:05;21.70;89.60
25438;DHT22;13364;49.084;9.978;2023-08-20T05:58:32;21.80;89.40
25438;DHT22;13364;49.084;9.978;2023-08-20T06:00:59;21.80;89.50
25438;DHT22;13364;49.084;9.978;2023-08-20T06:03:26;21.90;89.30
25438;DHT22;13364;49.084;9.978;2023-08-20T06:05:55;21.90;88.90
25438;DHT22;13364;49.084;9.978;2023-08-20T06:08:26;21.90;89.50
25438;DHT22;13364;49.084;9.978;2023-08-20T06:10:53;22.00;89.60
25438;DHT22;13364;49.084;9.978;2023-08-20T06:13:20;22.10;89.10
25438;DHT22;13364;49.084;9.978;2023-08-20T06:15:47;22.20;89.00
25438;DHT22;13364;49.084;9.978;2023-08-20T06:18:14;22.20;89.30
25438;DHT22;13364;49.084;9.978;2023-08-20T06:20:41;22.30;89.20
25438;DHT22;13364;49.084;9.978;2023-08-20T06:23:08;22.40;89.00
25438;DHT22;13364;49.084;9.978;2023-08-20T06:25:37;22.40;88.50
25438;DHT22;13364;49.084;9.978;2023-08-20T06:28:04;22.50;88.60
25438;DHT22;13364;49.084;9.978;2023-08-20T06:33:57;22.70;89.10
25438;DHT22;13364;49.084;9.978;2023-08-20T06:36:24;22.80;89.30
25438;DHT22;13364;49.084;9.978;2023-08-20T06:38:52;22.90;89.10
25438;DHT22;13364;49.084;9.978;2023-08-20T06:41:19;23.00;88.50
25438;DHT22;13364;49.084;9.978;2023-08-20T06:43:46;23.10;87.90
25438;DHT22;13364;49.084;9.978;2023-08-20T06:46:13;23.20;87.40
25438;DHT22;13364;49.084;9.978;2023-08-20T06:48:40;23.30;87.20
25438;DHT22;13364;49.084;9.978;2023-08-20T06:51:25;23.30;87.00
25438;DHT22;13364;49.084;9.978;2023-08-20T06:53:54;23.40;86.90
25438;DHT22;13364;49.084;9.978;2023-08-20T06:56:22;23.50;87.30
25438;DHT22;13364;49.084;9.978;2023-08-20T06:58:49;23.60;87.30
25438;DHT22;13364;49.084;9.978;2023-08-20T07:01:16;23.60;87.30
25438;DHT22;13364;49.084;9.978;2023-08-20T07:03:44;23.70;87.50
25438;DHT22;13364;49.084;9.978;2023-08-20T07:06:11;23.80;87.00
25438;DHT22;13364;49.084;9.978;2023-08-20T07:08:38;23.80;86.80
25438;DHT22;13364;49.084;9.978;2023-08-20T07:11:07;24.00;86.50
25438;DHT22;13364;49.084;9.978;2023-08-20T07:13:34;24.10;85.30
25438;DHT22;13364;49.084;9.978;2023-08-20T07:16:02;24.20;85.20
25438;DHT22;13364;49.084;9.978;2023-08-20T07:18:57;24.20;85.70
25438;DHT22;13364;49.084;9.978;2023-08-20T07:21:24;24.20;85.60
25438;DHT22;13364;49.084;9.978;2023-08-20T07:23:52;24.20;85.20
25438;DHT22;13364;49.084;9.978;2023-08-20T07:26:19;24.20;85.70
25438;DHT22;13364;49.084;9.978;2023-08-20T07:28:46;24.20;85.30
25438;DHT22;13364;49.084;9.978;2023-08-20T07:31:27;24.30;85.80
25438;DHT22;13364;49.084;9.978;2023-08-20T07:33:55;24.40;85.70
25438;DHT22;13364;49.084;9.978;2023-08-20T07:36:24;24.50;85.40
25438;DHT22;13364;49.084;9.978;2023-08-20T07:38:53;24.50;84.40
25438;DHT22;13364;49.084;9.978;2023-08-20T07:41:21;24.60;84.10
25438;DHT22;13364;49.084;9.978;2023-08-20T07:43:49;24.60;84.00
25438;DHT22;13364;49.084;9.978;2023-08-20T07:46:16;24.70;83.60
25438;DHT22;13364;49.084;9.978;2023-08-20T07:48:43;24.80;83.70
25438;DHT22;13364;49.084;9.978;2023-08-20T07:51:10;25.00;84.00
25438;DHT22;13364;49.084;9.978;2023-08-20T07:53:37;25.10;83.20
25438;DHT22;13364;49.084;9.978;2023-08-20T07:56:04;25.20;81.90
25438;DHT22;13364;49.084;9.978;2023-08-20T07:58:31;25.30;81.50
25438;DHT22;13364;49.084;9.978;2023-08-20T08:00:59;25.40;81.00
25438;DHT22;13364;49.084;9.978;2023-08-20T08:03:26;25.50;80.90
25438;DHT22;13364;49.084;9.978;2023-08-20T08:05:54;25.60;81.20
25438;DHT22;13364;49.084;9.978;2023-08-20T08:08:22;25.60;81.50
25438;DHT22;13364;49.084;9.978;2023-08-20T08:10:50;25.70;81.40
25438;DHT22;13364;49.084;9.978;2023-08-20T08:13:22;25.80;80.70
25438;DHT22;13364;49.084;9.978;2023-08-20T08:15:50;25.90;81.00
25438;DHT22;13364;49.084;9.978;2023-08-20T08:18:18;26.10;80.70
25438;DHT22;13364;49.084;9.978;2023-08-20T08:20:46;26.30;79.20
25438;DHT22;13364;49.084;9.978;2023-08-20T08:23:13;26.40;78.20
25438;DHT22;13364;49.084;9.978;2023-08-20T08:25:40;26.40;78.10
25438;DHT22;13364;49.084;9.978;2023-08-20T08:28:08;26.60;77.10
25438;DHT22;13364;49.084;9.978;2023-08-20T08:30:36;26.60;75.50
25438;DHT22;13364;49.084;9.978;2023-08-20T08:33:04;26.80;76.10
25438;DHT22;13364;49.084;9.978;2023-08-20T08:35:31;26.90;75.70
25438;DHT22;13364;49.084;9.978;2023-08-20T08:37:58;27.10;73.80
25438;DHT22;13364;49.084;9.978;2023-08-20T08:40:29;27.20;73.40
25438;DHT22;13364;49.084;9.978;2023-08-20T08:42:56;27.40;71.50
25438;DHT22;13364;49.084;9.978;2023-08-20T08:45:23;27.50;71.60
25438;DHT22;13364;49.084;9.978;2023-08-20T08:47:54;27.60;70.60
25438;DHT22;13364;49.084;9.978;2023-08-20T08:50:22;27.60;70.30
25438;DHT22;13364;49.084;9.978;2023-08-20T08:52:51;27.70;70.00
25438;DHT22;13364;49.084;9.978;2023-08-20T08:55:19;27.80;69.50
25438;DHT22;13364;49.084;9.978;2023-08-20T08:57:46;27.90;69.60
25438;DHT22;13364;49.084;9.978;2023-08-20T09:00:14;28.10;69.40
25438;DHT22;13364;49.084;9.978;2023-08-20T09:02:41;28.30;69.90
25438;DHT22;13364;49.084;9.978;2023-08-20T09:05:09;28.50;69.30
25438;DHT22;13364;49.084;9.978;2023-08-20T09:07:44;28.80;69.00
25438;DHT22;13364;49.084;9.978;2023-08-20T09:10:11;28.90;66.80
25438;DHT22;13364;49.084;9.978;2023-08-20T09:12:39;29.00;67.80
25438;DHT22;13364;49.084;9.978;2023-08-20T09:15:11;29.10;67.60
25438;DHT22;13364;49.084;9.978;2023-08-20T09:17:41;29.40;66.00
25438;DHT22;13364;49.084;9.978;2023-08-20T09:20:08;29.50;64.80
25438;DHT22;13364;49.084;9.978;2023-08-20T09:22:36;29.70;65.80
25438;DHT22;13364;49.084;9.978;2023-08-20T09:25:04;29.90;65.00
25438;DHT22;13364;49.084;9.978;2023-08-20T09:27:39;30.00;64.40
25438;DHT22;13364;49.084;9.978;2023-08-20T09:30:09;30.10;65.00
25438;DHT22;13364;49.084;9.978;2023-08-20T09:32:37;30.30;64.10
25438;DHT22;13364;49.084;9.978;2023-08-20T09:35:05;30.40;63.90
25438;DHT22;13364;49.084;9.978;2023-08-20T09:37:33;30.60;63.70
25438;DHT22;13364;49.084;9.978;2023-08-20T09:40:01;30.60;63.00
25438;DHT22;13364;49.084;9.978;2023-08-20T09:42:31;30.60;62.00
25438;DHT22;13364;49.084;9.978;2023-08-20T09:45:02;30.60;61.80
25438;DHT22;13364;49.084;9.978;2023-08-20T09:47:33;30.50;62.60
25438;DHT22;13364;49.084;9.978;2023-08-20T09:50:02;30.50;62.80
25438;DHT22;13364;49.084;9.978;2023-08-20T09:52:39;30.50;63.60
25438;DHT22;13364;49.084;9.978;2023-08-20T09:55:21;30.60;62.70
25438;DHT22;13364;49.084;9.978;2023-08-20T09:57:49;30.70;62.40
25438;DHT22;13364;49.084;9.978;2023-08-20T10:00:17;30.80;60.40
25438;DHT22;13364;49.084;9.978;2023-08-20T10:02:44;30.80;61.60
25438;DHT22;13364;49.084;9.978;2023-08-20T10:05:12;31.00;60.50
25438;DHT22;13364;49.084;9.978;2023-08-20T10:07:42;31.20;60.20
25438;DHT22;13364;49.084;9.978;2023-08-20T10:10:09;31.50;58.90
25438;DHT22;13364;49.084;9.978;2023-08-20T10:12:40;31.70;57.90
25438;DHT22;13364;49.084;9.978;2023-08-20T10:15:09;31.80;56.80
25438;DHT22;13364;49.084;9.978;2023-08-20T10:17:39;31.90;55.70
25438;DHT22;13364;49.084;9.978;2023-08-20T10:20:07;32.00;56.10
25438;DHT22;13364;49.084;9.978;2023-08-20T10:22:42;32.20;53.90
25438;DHT22;13364;49.084;9.978;2023-08-20T10:25:11;32.20;54.30
25438;DHT22;13364;49.084;9.978;2023-08-20T10:28:21;32.40;53.40
25438;DHT22;13364;49.084;9.978;2023-08-20T10:31:09;32.60;53.80
25438;DHT22;13364;49.084;9.978;2023-08-20T10:36:16;33.00;50.70
25438;DHT22;13364;49.084;9.978;2023-08-20T10:38:47;33.10;49.50
25438;DHT22;13364;49.084;9.978;2023-08-20T10:41:14;33.10;51.90
25438;DHT22;13364;49.084;9.978;2023-08-20T10:43:47;33.20;53.00
25438;DHT22;13364;49.084;9.978;2023-08-20T10:46:23;33.40;52.50
25438;DHT22;13364;49.084;9.978;2023-08-20T10:48:53;33.50;53.20
25438;DHT22;13364;49.084;9.978;2023-08-20T10:56:48;34.10;51.50
25438;DHT22;13364;49.084;9.978;2023-08-20T11:01:49;34.60;49.60
25438;DHT22;13364;49.084;9.978;2023-08-20T11:04:18;34.70;49.20
25438;DHT22;13364;49.084;9.978;2023-08-20T11:06:47;34.80;49.20
25438;DHT22;13364;49.084;9.978;2023-08-20T11:09:16;34.90;48.90
25438;DHT22;13364;49.084;9.978;2023-08-20T11:11:44;34.90;49.30
25438;DHT22;13364;49.084;9.978;2023-08-20T11:14:15;35.00;49.60
25438;DHT22;13364;49.084;9.978;2023-08-20T11:16:43;35.20;49.10
25438;DHT22;13364;49.084;9.978;2023-08-20T11:19:11;35.30;47.90
25438;DHT22;13364;49.084;9.978;2023-08-20T11:21:40;35.40;46.90
25438;DHT22;13364;49.084;9.978;2023-08-20T11:24:08;35.50;46.20
25438;DHT22;13364;49.084;9.978;2023-08-20T11:26:38;35.70;47.30
25438;DHT22;13364;49.084;9.978;2023-08-20T11:29:10;35.70;45.40
25438;DHT22;13364;49.084;9.978;2023-08-20T11:31:39;35.70;43.20
25438;DHT22;13364;49.084;9.978;2023-08-20T11:34:06;35.80;44.40
25438;DHT22;13364;49.084;9.978;2023-08-20T11:36:35;35.70;42.60
25438;DHT22;13364;49.084;9.978;2023-08-20T11:39:02;35.80;44.60
25438;DHT22;13364;49.084;9.978;2023-08-20T11:41:29;35.90;45.00
25438;DHT22;13364;49.084;9.978;2023-08-20T11:43:57;36.00;42.80
25438;DHT22;13364;49.084;9.978;2023-08-20T11:46:24;36.10;42.90
25438;DHT22;13364;49.084;9.978;2023-08-20T11:49:10;36.10;43.60
25438;DHT22;13364;49.084;9.978;2023-08-20T11:51:38;36.10;41.80
25438;DHT22;13364;49.084;9.978;2023-08-20T11:54:14;36.10;42.60
25438;DHT22;13364;49.084;9.978;2023-08-20T11:59:18;36.10;42.60
25438;DHT22;13364;49.084;9.978;2023-08-20T12:01:52;36.10;42.10
25438;DHT22;13364;49.084;9.978;2023-08-20T12:04:24;36.20;43.20
25438;DHT22;13364;49.084;9.978;2023-08-20T12:07:07;36.30;41.50
25438;DHT22;13364;49.084;9.978;2023-08-20T12:09:35;36.20;42.30
25438;DHT22;13364;49.084;9.978;2023-08-20T12:12:22;36.20;42.10
25438;DHT22;13364;49.084;9.978;2023-08-20T12:14:49;36.20;43.40
25438;DHT22;13364;49.084;9.978;2023-08-20T12:17:19;36.30;44.40
25438;DHT22;13364;49.084;9.978;2023-08-20T12:19:46;36.30;44.80
25438;DHT22;13364;49.084;9.978;2023-08-20T12:22:13;36.40;45.10
25438;DHT22;13364;49.084;9.978;2023-08-20T12:28:12;36.60;46.40
25438;DHT22;13364;49.084;9.978;2023-08-20T12:30:39;36.70;45.80
25438;DHT22;13364;49.084;9.978;2023-08-20T12:33:07;36.80;45.30
25438;DHT22;13364;49.084;9.978;2023-08-20T12:35:35;36.90;45.20
25438;DHT22;13364;49.084;9.978;2023-08-20T12:38:03;36.90;43.40
25438;DHT22;13364;49.084;9.978;2023-08-20T12:40:31;36.90;43.60
25438;DHT22;13364;49.084;9.978;2023-08-20T12:42:58;37.00;43.60
25438;DHT22;13364;49.084;9.978;2023-08-20T12:45:25;37.00;43.10
25438;DHT22;13364;49.084;9.978;2023-08-20T12:47:52;36.90;42.90
25438;DHT22;13364;49.084;9.978;2023-08-20T12:50:20;36.80;43.50
25438;DHT22;13364;49.084;9.978;2023-08-20T12:52:48;36.80;43.50
25438;DHT22;13364;49.084;9.978;2023-08-20T12:55:17;36.80;44.20
25438;DHT22;13364;49.084;9.978;2023-08-20T12:57:58;36.90;42.50
25438;DHT22;13364;49.084;9.978;2023-08-20T13:00:26;36.80;41.50
25438;DHT22;13364;49.084;9.978;2023-08-20T13:02:54;36.70;41.80
25438;DHT22;13364;49.084;9.978;2023-08-20T13:05:23;36.70;42.70
25438;DHT22;13364;49.084;9.978;2023-08-20T13:11:17;36.80;44.30
25438;DHT22;13364;49.084;9.978;2023-08-20T13:13:47;36.90;41.40
25438;DHT22;13364;49.084;9.978;2023-08-20T13:16:14;36.90;40.80
25438;DHT22;13364;49.084;9.978;2023-08-20T13:18:50;36.80;43.50
25438;DHT22;13364;49.084;9.978;2023-08-20T13:21:17;36.70;41.60
25438;DHT22;13364;49.084;9.978;2023-08-20T13:23:44;36.50;43.10
25438;DHT22;13364;49.084;9.978;2023-08-20T13:26:11;36.50;43.90
25438;DHT22;13364;49.084;9.978;2023-08-20T13:28:38;36.50;43.30
25438;DHT22;13364;49.084;9.978;2023-08-20T13:31:06;36.60;43.30
25438;DHT22;13364;49.084;9.978;2023-08-20T13:33:33;36.70;43.30
25438;DHT22;13364;49.084;9.978;2023-08-20T13:36:00;36.70;44.40
25438;DHT22;13364;49.084;9.978;2023-08-20T13:38:27;36.80;43.30
25438;DHT22;13364;49.084;9.978;2023-08-20T13:40:54;37.00;43.40
25438;DHT22;13364;49.084;9.978;2023-08-20T13:43:22;37.20;43.80
25438;DHT22;13364;49.084;9.978;2023-08-20T13:45:50;37.30;43.30
25438;DHT22;13364;49.084;9.978;2023-08-20T13:48:17;37.50;42.20
25438;DHT22;13364;49.084;9.978;2023-08-20T13:50:44;37.60;41.50
25438;DHT22;13364;49.084;9.978;2023-08-20T13:53:11;37.70;43.30
25438;DHT22;13364;49.084;9.978;2023-08-20T13:55:38;37.80;43.70
25438;DHT22;13364;49.084;9.978;2023-08-20T13:58:06;37.90;42.20
25438;DHT22;13364;49.084;9.978;2023-08-20T14:00:36;37.90;41.60
25438;DHT22;13364;49.084;9.978;2023-08-20T14:03:03;38.00;42.70
25438;DHT22;13364;49.084;9.978;2023-08-20T14:05:30;38.10;40.90
25438;DHT22;13364;49.084;9.978;2023-08-20T14:07:57;38.10;40.90
25438;DHT22;13364;49.084;9.978;2023-08-20T14:14:42;38.00;41.60
25438;DHT22;13364;49.084;9.978;2023-08-20T14:17:09;37.50;42.70
25438;DHT22;13364;49.084;9.978;2023-08-20T14:19:36;37.30;41.40
25438;DHT22;13364;49.084;9.978;2023-08-20T14:22:03;37.20;43.20
25438;DHT22;13364;49.084;9.978;2023-08-20T14:24:43;37.20;41.90
25438;DHT22;13364;49.084;9.978;2023-08-20T14:27:13;37.30;42.10
25438;DHT22;13364;49.084;9.978;2023-08-20T14:29:41;37.20;43.20
25438;DHT22;13364;49.084;9.978;2023-08-20T14:32:08;37.20;44.30
25438;DHT22;13364;49.084;9.978;2023-08-20T14:34:35;37.20;41.50
25438;DHT22;13364;49.084;9.978;2023-08-20T14:37:03;37.00;41.00
25438;DHT22;13364;49.084;9.978;2023-08-20T14:39:31;36.80;43.00
25438;DHT22;13364;49.084;9.978;2023-08-20T14:41:59;36.60;43.00
25438;DHT22;13364;49.084;9.978;2023-08-20T14:44:29;36.30;43.50
25438;DHT22;13364;49.084;9.978;2023-08-20T14:46:58;36.10;46.70
25438;DHT22;13364;49.084;9.978;2023-08-20T14:49:25;35.90;47.10
25438;DHT22;13364;49.084;9.978;2023-08-20T14:51:55;35.80;44.80
25438;DHT22;13364;49.084;9.978;2023-08-20T14:54:42;35.60;47.00
25438;DHT22;13364;49.084;9.978;2023-08-20T14:57:09;35.40;47.50
25438;DHT22;13364;49.084;9.978;2023-08-20T14:59:36;35.30;48.10
25438;DHT22;13364;49.084;9.978;2023-08-20T15:02:03;35.10;49.30
25438;DHT22;13364;49.084;9.978;2023-08-20T15:04:30;35.10;49.70
25438;DHT22;13364;49.084;9.978;2023-08-20T15:11:01;35.30;46.90
25438;DHT22;13364;49.084;9.978;2023-08-20T15:13:31;35.20;44.90
25438;DHT22;13364;49.084;9.978;2023-08-20T15:15:58;35.00;45.10
25438;DHT22;13364;49.084;9.978;2023-08-20T15:18:26;35.00;46.50
25438;DHT22;13364;49.084;9.978;2023-08-20T15:20:57;35.00;45.50
25438;DHT22;13364;49.084;9.978;2023-08-20T15:23:26;35.00;47.10
25438;DHT22;13364;49.084;9.978;2023-08-20T15:25:54;35.10;46.00
25438;DHT22;13364;49.084;9.978;2023-08-20T15:31:31;35.50;47.10
25438;DHT22;13364;49.084;9.978;2023-08-20T15:33:59;35.50;44.90
25438;DHT22;13364;49.084;9.978;2023-08-20T15:36:26;35.40;44.90
25438;DHT22;13364;49.084;9.978;2023-08-20T15:38:54;35.30;47.40
25438;DHT22;13364;49.084;9.978;2023-08-20T15:41:26;35.20;46.70
25438;DHT22;13364;49.084;9.978;2023-08-20T15:43:53;34.80;45.60
25438;DHT22;13364;49.084;9.978;2023-08-20T15:46:20;34.50;47.10
25438;DHT22;13364;49.084;9.978;2023-08-20T15:48:50;34.20;47.00
25438;DHT22;13364;49.084;9.978;2023-08-20T15:51:17;33.90;47.50
25438;DHT22;13364;49.084;9.978;2023-08-20T15:53:46;33.70;50.00
25438;DHT22;13364;49.084;9.978;2023-08-20T15:56:13;33.60;49.80
25438;DHT22;13364;49.084;9.978;2023-08-20T15:58:40;33.40;49.60
25438;DHT22;13364;49.084;9.978;2023-08-20T16:01:07;33.40;50.80
25438;DHT22;13364;49.084;9.978;2023-08-20T16:03:35;33.30;50.10
25438;DHT22;13364;49.084;9.978;2023-08-20T16:06:30;33.20;51.50
25438;DHT22;13364;49.084;9.978;2023-08-20T16:08:58;33.20;50.30
25438;DHT22;13364;49.084;9.978;2023-08-20T16:11:25;33.00;50.50
25438;DHT22;13364;49.084;9.978;2023-08-20T16:13:52;32.90;52.20
25438;DHT22;13364;49.084;9.978;2023-08-20T16:16:24;32.80;50.60
25438;DHT22;13364;49.084;9.978;2023-08-20T16:18:51;32.60;51.40
25438;DHT22;13364;49.084;9.978;2023-08-20T16:21:19;32.50;51.20
25438;DHT22;13364;49.084;9.978;2023-08-20T16:23:46;32.40;51.40
25438;DHT22;13364;49.084;9.978;2023-08-20T16:26:16;32.20;51.80
25438;DHT22;13364;49.084;9.978;2023-08-20T16:29:02;32.10;52.50